Time;durP1;ratioP1;P1;durP2;ratioP2;P2;SDS_P1;SDS_P2;PMS_P1;PMS_P2;Temp;Humidity;BMP_temperature;BMP_pressure;BME280_temperature;BME280_humidity;BME280_pressure;Samples;Min_cycle;Max_cycle;Signal;HPM_P1;HPM_P2
2022/09/11 00:02:07;;;;;;;4.07;0.68;;;21.20;45.20;;;;;;6258373;28;20374;-79
2022/09/11 00:05:09;;;;;;;2.80;0.60;;;21.10;45.20;;;;;;6266201;28;20095;-79
2022/09/11 00:08:12;;;;;;;1.13;0.60;;;21.10;45.40;;;;;;6262218;28;20131;-79
2022/09/11 00:11:16;;;;;;;0.65;0.52;;;21.00;45.60;;;;;;6288986;28;20025;-79
2022/09/11 00:14:17;;;;;;;1.45;0.68;;;20.90;45.70;;;;;;6276492;28;20473;-79
2022/09/11 00:17:19;;;;;;;2.55;0.65;;;20.90;45.90;;;;;;6294858;28;20044;-79
2022/09/11 00:20:20;;;;;;;6.93;0.93;;;20.80;46.00;;;;;;6288051;28;20405;-79
2022/09/11 00:23:23;;;;;;;6.35;0.95;;;20.80;46.10;;;;;;6252561;28;20051;-79
2022/09/11 00:26:25;;;;;;;1.35;0.80;;;20.70;46.20;;;;;;6267761;28;20433;-79
2022/09/11 00:29:26;;;;;;;1.67;0.70;;;20.80;46.40;;;;;;6262449;28;20056;-80
2022/09/11 00:32:27;;;;;;;3.72;0.68;;;20.70;46.60;;;;;;6277925;28;20744;-79
2022/09/11 00:35:29;;;;;;;2.72;0.70;;;20.60;46.80;;;;;;6287081;28;20040;-79
2022/09/11 00:38:32;;;;;;;3.20;0.98;;;20.70;46.90;;;;;;6295740;28;20036;-78
2022/09/11 00:41:39;;;;;;;2.28;0.80;;;20.70;47.10;;;;;;6297444;28;20465;-78
2022/09/11 00:44:39;;;;;;;1.15;0.70;;;20.70;47.30;;;;;;6273671;28;20156;-78
2022/09/11 00:47:42;;;;;;;1.33;0.85;;;20.60;47.40;;;;;;6248585;28;20045;-78
2022/09/11 00:50:43;;;;;;;5.55;1.15;;;20.60;47.60;;;;;;6295320;28;20111;-79
2022/09/11 00:53:45;;;;;;;1.20;1.08;;;20.60;47.90;;;;;;6258629;28;20040;-80
2022/09/11 00:56:47;;;;;;;2.97;1.10;;;20.50;48.00;;;;;;6280873;28;20037;-79
2022/09/11 00:59:51;;;;;;;1.40;1.08;;;20.50;48.10;;;;;;6273069;28;20040;-79
2022/09/11 01:02:54;;;;;;;10.80;1.25;;;20.50;48.10;;;;;;6279061;28;20356;-79
2022/09/11 01:05:55;;;;;;;3.17;1.00;;;20.50;48.10;;;;;;6283972;28;20042;-79
2022/09/11 01:08:58;;;;;;;3.35;1.10;;;20.50;48.10;;;;;;6268238;28;20113;-79
2022/09/11 01:12:09;;;;;;;1.23;0.90;;;20.50;48.10;;;;;;6280053;28;20120;-79
2022/09/11 01:15:18;;;;;;;2.10;0.60;;;20.50;48.10;;;;;;6271930;28;20041;-79
2022/09/11 01:18:35;;;;;;;0.60;0.45;;;20.50;48.20;;;;;;6294309;28;20124;-78
2022/09/11 01:22:16;;;;;;;3.47;0.70;;;20.50;48.20;;;;;;6253249;28;20565;-79
2022/09/11 01:25:30;;;;;;;2.38;0.90;;;20.50;48.20;;;;;;6273720;28;20089;-79
2022/09/11 01:28:43;;;;;;;3.65;0.90;;;20.50;48.20;;;;;;6266390;28;20067;-79
2022/09/11 01:31:56;;;;;;;3.05;0.45;;;20.50;48.10;;;;;;6259432;28;20056;-79
2022/09/11 01:35:24;;;;;;;6.13;1.05;;;20.50;48.10;;;;;;6284603;28;20079;-79
2022/09/11 01:38:34;;;;;;;2.28;0.80;;;20.50;48.10;;;;;;6265145;28;20033;-79
2022/09/11 01:41:35;;;;;;;2.05;0.70;;;20.50;48.20;;;;;;6267039;28;20025;-79
2022/09/11 01:44:59;;;;;;;2.47;1.33;;;20.40;48.30;;;;;;6268494;28;20056;-79
2022/09/11 01:48:01;;;;;;;8.27;1.05;;;20.40;48.50;;;;;;6282588;28;20040;-79
2022/09/11 01:51:03;;;;;;;1.70;0.80;;;20.30;48.50;;;;;;6278150;28;20048;-79
2022/09/11 01:54:10;;;;;;;8.95;1.15;;;20.30;48.60;;;;;;6256488;28;20044;-79
2022/09/11 01:57:48;;;;;;;1.73;1.05;;;20.20;48.70;;;;;;6265635;28;20043;-79
2022/09/11 02:00:54;;;;;;;4.22;1.00;;;20.20;48.90;;;;;;6173268;28;20035;-79
2022/09/11 02:04:06;;;;;;;5.50;1.50;;;20.20;49.10;;;;;;6185641;28;20066;-79
2022/09/11 02:07:17;;;;;;;8.27;1.90;;;20.10;49.50;;;;;;6153879;28;20069;-78
2022/09/11 02:10:44;;;;;;;1.55;1.00;;;20.10;50.00;;;;;;6168682;28;20038;-79
2022/09/11 02:13:48;;;;;;;2.00;0.85;;;20.10;50.40;;;;;;6153018;28;20035;-79
2022/09/11 02:16:57;;;;;;;1.35;1.00;;;20.10;50.60;;;;;;6179471;28;20123;-79
2022/09/11 02:19:59;;;;;;;1.65;1.00;;;20.00;50.70;;;;;;6169575;28;20073;-79
2022/09/11 02:23:00;;;;;;;2.42;0.95;;;20.00;50.70;;;;;;6156792;28;20046;-78
2022/09/11 02:26:02;;;;;;;1.83;1.52;;;20.00;50.70;;;;;;6167731;28;20054;-79
2022/09/11 02:29:04;;;;;;;1.52;0.88;;;20.00;50.80;;;;;;6139098;28;20039;-78
2022/09/11 02:32:10;;;;;;;4.82;1.30;;;19.90;50.90;;;;;;6171868;28;20468;-78
2022/09/11 02:35:11;;;;;;;21.83;1.75;;;20.00;51.10;;;;;;6183461;28;20056;-78
2022/09/11 02:38:23;;;;;;;2.50;1.02;;;19.90;51.20;;;;;;6281986;28;20052;-78
2022/09/11 02:41:45;;;;;;;3.45;1.23;;;20.00;51.30;;;;;;6244963;28;20463;-79
2022/09/11 02:44:52;;;;;;;7.25;1.10;;;19.90;51.20;;;;;;6255137;28;20128;-79
2022/09/11 02:48:05;;;;;;;1.55;0.80;;;20.00;51.10;;;;;;6268760;28;20536;-78
2022/09/11 02:51:27;;;;;;;1.55;0.82;;;19.90;51.50;;;;;;6274215;28;20052;-78
2022/09/11 02:54:56;;;;;;;3.88;0.90;;;19.80;50.70;;;;;;6272370;28;20033;-78
2022/09/11 02:58:21;;;;;;;0.50;0.50;;;19.80;50.70;;;;;;6281078;28;20037;-79
2022/09/11 03:01:24;;;;;;;6.38;1.30;;;19.70;50.70;;;;;;6278129;28;20033;-78
2022/09/11 03:04:26;;;;;;;3.47;0.70;;;19.70;50.80;;;;;;6276760;28;20486;-78
2022/09/11 03:07:29;;;;;;;6.82;0.93;;;19.60;50.80;;;;;;6262542;28;21621;-78
2022/09/11 03:10:33;;;;;;;4.93;1.10;;;19.60;50.80;;;;;;6279618;28;20090;-79
2022/09/11 03:13:35;;;;;;;7.25;1.00;;;19.60;50.90;;;;;;6262574;28;20037;-78
2022/09/11 03:16:37;;;;;;;2.78;0.70;;;19.60;50.80;;;;;;6238395;28;20416;-78
2022/09/11 03:19:37;;;;;;;4.47;1.00;;;19.50;50.80;;;;;;6293520;28;20035;-79
2022/09/11 03:22:38;;;;;;;3.00;0.63;;;19.50;50.90;;;;;;6272130;28;20049;-78
2022/09/11 03:25:40;;;;;;;4.28;0.80;;;19.40;51.00;;;;;;6265772;28;20034;-78
2022/09/11 03:28:42;;;;;;;0.82;0.70;;;19.40;51.20;;;;;;6250957;28;20406;-78
2022/09/11 03:31:44;;;;;;;2.03;0.73;;;19.40;51.30;;;;;;6263888;28;20511;-78
2022/09/11 03:34:46;;;;;;;1.98;0.68;;;19.40;51.40;;;;;;6260639;28;20033;-78
2022/09/11 03:37:47;;;;;;;2.40;1.00;;;19.30;51.40;;;;;;6267443;28;20037;-78
2022/09/11 03:40:48;;;;;;;3.90;1.25;;;19.30;51.50;;;;;;6284495;28;20032;-78
2022/09/11 03:43:48;;;;;;;2.25;1.10;;;19.30;51.50;;;;;;6296432;28;20048;-78
2022/09/11 03:46:51;;;;;;;3.60;1.05;;;19.30;51.50;;;;;;6293193;28;20454;-78
2022/09/11 03:49:53;;;;;;;3.38;1.05;;;19.40;51.60;;;;;;6252999;28;20052;-78
2022/09/11 03:52:54;;;;;;;1.20;0.70;;;19.40;51.70;;;;;;6271525;28;20354;-79
2022/09/11 03:55:55;;;;;;;1.25;0.70;;;19.40;51.80;;;;;;6286023;28;20045;-79
2022/09/11 03:58:59;;;;;;;4.15;0.80;;;19.40;51.90;;;;;;6268810;28;20508;-79
2022/09/11 04:02:00;;;;;;;3.00;0.70;;;19.40;52.10;;;;;;6273919;28;20048;-79
2022/09/11 04:05:03;;;;;;;4.78;1.00;;;19.40;52.20;;;;;;6275258;28;20052;-79
2022/09/11 04:08:05;;;;;;;1.48;0.63;;;19.30;52.50;;;;;;6272946;28;20048;-79
2022/09/11 04:11:10;;;;;;;2.10;0.77;;;19.30;52.70;;;;;;6278271;28;20033;-79
2022/09/11 04:14:11;;;;;;;1.92;0.60;;;19.30;52.90;;;;;;6247216;28;20040;-79
2022/09/11 04:17:14;;;;;;;1.17;0.70;;;19.20;53.00;;;;;;6284164;28;20366;-79
2022/09/11 04:20:15;;;;;;;3.05;0.90;;;19.20;53.10;;;;;;6275357;28;20061;-79
2022/09/11 04:23:18;;;;;;;5.13;1.25;;;19.20;53.10;;;;;;6279573;28;20037;-80
2022/09/11 04:26:24;;;;;;;1.45;0.75;;;19.20;53.10;;;;;;6272136;28;20477;-79
2022/09/11 04:29:28;;;;;;;1.13;0.70;;;19.10;53.00;;;;;;6270358;28;20049;-80
2022/09/11 04:32:30;;;;;;;3.92;0.80;;;19.10;53.00;;;;;;6265611;28;20041;-79
2022/09/11 04:35:37;;;;;;;2.70;1.27;;;19.10;53.00;;;;;;6251608;28;20121;-79
2022/09/11 04:38:40;;;;;;;3.00;1.60;;;19.00;53.00;;;;;;6270223;28;20048;-80
2022/09/11 04:41:43;;;;;;;2.45;0.90;;;19.00;53.10;;;;;;6277642;28;20033;-79
2022/09/11 04:44:45;;;;;;;13.10;0.98;;;19.00;53.10;;;;;;6282355;28;20033;-79
2022/09/11 04:47:46;;;;;;;2.67;1.30;;;19.00;53.10;;;;;;6279617;28;20068;-79
2022/09/11 04:50:47;;;;;;;4.03;0.93;;;18.90;53.10;;;;;;6271228;28;20043;-79
2022/09/11 04:53:56;;;;;;;5.82;0.77;;;18.80;53.10;;;;;;6287169;28;20045;-80
2022/09/11 04:56:57;;;;;;;2.40;0.93;;;18.80;53.10;;;;;;6274502;28;20039;-79
2022/09/11 04:59:58;;;;;;;2.05;0.80;;;18.80;53.20;;;;;;6246473;28;20049;-79
2022/09/11 05:03:00;;;;;;;1.60;0.98;;;18.80;53.30;;;;;;6251067;28;20033;-79
2022/09/11 05:06:06;;;;;;;1.13;0.93;;;18.80;53.50;;;;;;6294930;28;20034;-79
2022/09/11 05:09:09;;;;;;;1.33;0.70;;;18.70;53.60;;;;;;6269550;28;20347;-79
2022/09/11 05:12:10;;;;;;;2.60;1.00;;;18.70;53.80;;;;;;6275895;28;20032;-80
2022/09/11 05:15:11;;;;;;;9.73;1.27;;;18.70;54.00;;;;;;6282197;28;20035;-79
2022/09/11 05:18:13;;;;;;;2.95;1.27;;;18.60;54.20;;;;;;6296669;28;20101;-79
2022/09/11 05:21:15;;;;;;;3.13;1.02;;;18.60;54.40;;;;;;6297039;28;20032;-79
2022/09/11 05:24:16;;;;;;;1.67;1.00;;;18.60;54.50;;;;;;6296458;28;20068;-79
2022/09/11 05:27:18;;;;;;;1.60;0.98;;;18.60;54.60;;;;;;6297876;28;20036;-79
2022/09/11 05:30:19;;;;;;;6.32;0.90;;;18.70;54.70;;;;;;6289658;28;20029;-79
2022/09/11 05:33:24;;;;;;;1.98;0.80;;;18.60;54.60;;;;;;6295300;28;20032;-79
2022/09/11 05:36:26;;;;;;;1.33;0.85;;;18.70;54.60;;;;;;6296433;28;20041;-80
2022/09/11 05:39:28;;;;;;;5.13;1.10;;;18.70;54.50;;;;;;6296137;28;20036;-80
2022/09/11 05:42:29;;;;;;;2.30;0.95;;;18.70;54.50;;;;;;6296103;28;20071;-79
2022/09/11 05:45:31;;;;;;;4.03;1.20;;;18.70;54.40;;;;;;6296424;28;20540;-79
2022/09/11 05:48:34;;;;;;;4.97;1.02;;;18.70;54.40;;;;;;6295316;28;20613;-80
2022/09/11 05:51:39;;;;;;;2.85;0.88;;;18.70;54.40;;;;;;6268290;28;20381;-79
2022/09/11 05:54:40;;;;;;;4.63;1.00;;;18.80;54.40;;;;;;6292820;28;20362;-79
2022/09/11 05:57:41;;;;;;;5.38;0.93;;;18.80;54.30;;;;;;6293460;28;20036;-78
2022/09/11 06:00:46;;;;;;;5.95;1.17;;;18.80;54.30;;;;;;6277118;28;20737;-79
2022/09/11 06:03:48;;;;;;;1.50;0.95;;;18.70;54.30;;;;;;6293614;28;20036;-78
2022/09/11 06:06:50;;;;;;;3.33;0.88;;;18.80;54.40;;;;;;6294608;28;20174;-79
2022/09/11 06:09:52;;;;;;;2.03;1.05;;;18.70;54.40;;;;;;6270974;28;20070;-78
2022/09/11 06:12:54;;;;;;;5.00;0.88;;;18.70;54.40;;;;;;6266223;28;20029;-79
2022/09/11 06:15:55;;;;;;;4.10;1.25;;;18.70;54.40;;;;;;6270344;28;20083;-79
2022/09/11 06:18:56;;;;;;;2.17;0.98;;;18.70;54.20;;;;;;6270105;28;20033;-80
2022/09/11 06:21:58;;;;;;;0.85;0.82;;;18.70;54.20;;;;;;6265169;28;20090;-80
2022/09/11 06:25:12;;;;;;;5.15;1.10;;;18.80;54.20;;;;;;6287342;28;20052;-80
2022/09/11 06:28:13;;;;;;;0.80;0.77;;;18.80;54.10;;;;;;6237884;28;20090;-80
2022/09/11 06:31:18;;;;;;;1.02;0.63;;;18.80;54.10;;;;;;6236995;28;20041;-80
2022/09/11 06:34:19;;;;;;;7.22;0.93;;;18.80;54.00;;;;;;6258582;28;20124;-80
2022/09/11 06:37:21;;;;;;;0.93;0.60;;;18.90;54.00;;;;;;6270647;28;20506;-79
2022/09/11 06:40:23;;;;;;;0.88;0.60;;;18.90;53.90;;;;;;6255295;28;20461;-79
2022/09/11 06:43:26;;;;;;;2.05;0.82;;;18.90;53.80;;;;;;6266576;28;20053;-78
2022/09/11 06:46:28;;;;;;;7.72;0.98;;;18.90;53.70;;;;;;6261105;28;20164;-79
2022/09/11 06:49:31;;;;;;;3.95;0.77;;;19.10;53.50;;;;;;6258382;28;20029;-79
2022/09/11 06:52:52;;;;;;;3.47;1.10;;;19.10;53.40;;;;;;6263039;28;20033;-78
2022/09/11 06:56:05;;;;;;;6.63;0.93;;;19.20;53.10;;;;;;6245118;28;20061;-79
2022/09/11 06:59:06;;;;;;;5.03;1.00;;;19.30;53.00;;;;;;6237198;28;20045;-79
2022/09/11 07:02:08;;;;;;;4.25;1.10;;;19.30;52.80;;;;;;6257811;28;20033;-80
2022/09/11 07:05:10;;;;;;;1.20;0.88;;;19.40;52.70;;;;;;6287427;28;20056;-79
2022/09/11 07:08:12;;;;;;;3.55;0.90;;;19.50;52.70;;;;;;6277518;28;20116;-80
2022/09/11 07:11:13;;;;;;;4.00;1.08;;;19.50;52.50;;;;;;6270673;28;20203;-80
2022/09/11 07:14:19;;;;;;;1.05;0.77;;;19.60;52.30;;;;;;6273812;28;20477;-80
2022/09/11 07:17:21;;;;;;;2.67;0.80;;;19.60;52.20;;;;;;6274938;28;20127;-80
2022/09/11 07:20:24;;;;;;;4.35;0.95;;;19.80;52.10;;;;;;6254013;28;20040;-80
2022/09/11 07:23:26;;;;;;;0.63;0.57;;;19.90;51.90;;;;;;6251438;28;20111;-79
2022/09/11 07:26:29;;;;;;;2.50;1.35;;;20.00;51.40;;;;;;6271772;28;20103;-79
2022/09/11 07:29:35;;;;;;;2.50;0.70;;;20.10;51.20;;;;;;6265206;28;20045;-80
2022/09/11 07:32:36;;;;;;;4.28;0.73;;;20.20;51.00;;;;;;6270697;28;20091;-81
2022/09/11 07:35:37;;;;;;;5.50;1.15;;;20.30;50.70;;;;;;6246988;28;20413;-79
2022/09/11 07:38:40;;;;;;;0.90;0.52;;;20.40;50.60;;;;;;6292144;28;20044;-79
2022/09/11 07:41:41;;;;;;;2.53;0.90;;;20.60;50.50;;;;;;6282470;28;20115;-78
2022/09/11 07:44:49;;;;;;;2.75;0.80;;;20.60;50.00;;;;;;6279456;28;20105;-83
2022/09/11 07:47:51;;;;;;;1.42;0.93;;;20.70;49.60;;;;;;6268573;28;20052;-80
2022/09/11 07:51:03;;;;;;;3.90;1.02;;;20.90;49.60;;;;;;6267243;28;20053;-78
2022/09/11 07:54:05;;;;;;;2.08;0.80;;;20.90;49.40;;;;;;6271248;28;20037;-82
2022/09/11 07:57:08;;;;;;;2.42;0.68;;;21.10;49.30;;;;;;6270013;28;20382;-81
2022/09/11 08:00:09;;;;;;;1.08;0.80;;;21.20;49.00;;;;;;6269417;28;20052;-82
2022/09/11 08:03:23;;;;;;;5.35;0.70;;;21.30;48.80;;;;;;6271566;28;20055;-82
2022/09/11 08:06:29;;;;;;;1.55;0.70;;;21.40;48.50;;;;;;6265793;28;20055;-82
2022/09/11 08:09:32;;;;;;;3.13;0.77;;;21.60;48.30;;;;;;6281814;28;20047;-83
2022/09/11 08:12:36;;;;;;;2.65;0.90;;;21.70;47.80;;;;;;6279477;28;20029;-82
2022/09/11 08:15:37;;;;;;;5.22;0.60;;;21.80;47.50;;;;;;6266603;28;20032;-81
2022/09/11 08:18:40;;;;;;;1.35;0.57;;;21.90;47.00;;;;;;6279379;28;20033;-83
2022/09/11 08:21:41;;;;;;;1.63;0.70;;;21.90;46.60;;;;;;6290922;28;20059;-83
2022/09/11 08:24:43;;;;;;;1.70;0.93;;;22.00;46.70;;;;;;6265008;28;20029;-82
2022/09/11 08:27:48;;;;;;;0.50;0.50;;;22.10;46.20;;;;;;6275307;28;20032;-83
2022/09/11 08:30:57;;;;;;;3.42;0.90;;;22.10;46.20;;;;;;6288072;28;20037;-83
2022/09/11 08:33:59;;;;;;;3.95;0.68;;;22.20;46.20;;;;;;6270797;28;20052;-83
2022/09/11 08:37:01;;;;;;;3.50;0.57;;;22.40;45.90;;;;;;6291325;28;20041;-83
2022/09/11 08:40:09;;;;;;;1.23;0.52;;;22.60;45.50;;;;;;6263862;28;20052;-82
2022/09/11 08:43:27;;;;;;;2.00;0.70;;;22.70;45.20;;;;;;6251449;28;20041;-75
2022/09/11 08:46:42;;;;;;;3.53;0.77;;;22.90;44.90;;;;;;6278496;28;20427;-75
2022/09/11 08:49:50;;;;;;;3.00;0.65;;;23.00;44.50;;;;;;6277706;28;20108;-75
2022/09/11 08:52:55;;;;;;;2.63;0.70;;;23.20;44.20;;;;;;6295673;28;20366;-76
2022/09/11 08:56:08;;;;;;;2.33;0.60;;;23.30;43.90;;;;;;6278351;28;20036;-75
2022/09/11 08:59:21;;;;;;;3.40;0.65;;;23.40;44.30;;;;;;6289570;28;20119;-75
2022/09/11 09:02:37;;;;;;;4.85;1.00;;;23.50;43.50;;;;;;6273080;28;20052;-75
2022/09/11 09:05:46;;;;;;;3.55;0.77;;;23.60;43.30;;;;;;6280424;28;20369;-74
2022/09/11 09:08:58;;;;;;;4.75;0.68;;;23.70;42.80;;;;;;6283347;28;20086;-76
2022/09/11 09:12:27;;;;;;;17.08;0.88;;;23.80;42.60;;;;;;6282412;28;20091;-75
2022/09/11 09:15:46;;;;;;;2.83;0.70;;;23.70;42.40;;;;;;6262947;28;20382;-75
2022/09/11 09:19:28;;;;;;;3.45;0.93;;;23.70;42.40;;;;;;6288315;28;20073;-75
2022/09/11 09:22:56;;;;;;;1.42;0.55;;;23.70;42.70;;;;;;6260443;28;20037;-72
2022/09/11 09:26:00;;;;;;;2.25;1.00;;;23.80;42.50;;;;;;6270059;28;20037;-73
2022/09/11 09:29:08;;;;;;;8.98;2.85;;;23.90;41.90;;;;;;6250015;28;20032;-77
2022/09/11 09:32:42;;;;;;;5.97;2.30;;;23.90;41.60;;;;;;6290208;28;20108;-77
2022/09/11 09:35:44;;;;;;;5.95;1.92;;;23.80;41.20;;;;;;6274232;28;20025;-77
2022/09/11 09:38:52;;;;;;;5.65;0.90;;;23.80;41.30;;;;;;6281108;28;20074;-77
2022/09/11 09:42:05;;;;;;;0.43;0.43;;;23.80;41.30;;;;;;6235254;28;20072;-77
2022/09/11 09:45:06;;;;;;;4.90;0.90;;;23.80;41.40;;;;;;6261511;28;20469;-77
2022/09/11 09:48:10;;;;;;;12.82;2.40;;;23.90;41.20;;;;;;6255816;28;20167;-77
2022/09/11 09:51:12;;;;;;;2.45;1.00;;;24.00;41.00;;;;;;6265199;28;20032;-76
2022/09/11 09:54:15;;;;;;;2.90;0.80;;;24.10;40.80;;;;;;6270671;28;20045;-76
2022/09/11 09:57:18;;;;;;;6.22;0.93;;;24.10;41.00;;;;;;6291016;28;20047;-75
2022/09/11 10:00:19;;;;;;;0.82;0.40;;;24.10;40.80;;;;;;6288427;28;20530;-75
2022/09/11 10:03:22;;;;;;;2.42;0.50;;;24.10;40.80;;;;;;6261248;28;20477;-75
2022/09/11 10:06:23;;;;;;;2.15;0.50;;;24.10;40.60;;;;;;6254809;28;20537;-75
2022/09/11 10:09:28;;;;;;;3.15;0.70;;;24.10;41.10;;;;;;6266622;28;20036;-74
2022/09/11 10:12:31;;;;;;;1.00;0.60;;;24.10;40.40;;;;;;6281647;28;20124;-74
2022/09/11 10:15:37;;;;;;;0.73;0.57;;;24.10;40.40;;;;;;6271156;28;20033;-71
2022/09/11 10:18:45;;;;;;;0.85;0.45;;;24.20;40.30;;;;;;6265800;28;20315;-71
2022/09/11 10:21:46;;;;;;;;;;;24.30;40.00;;;;;;6273918;28;20124;-70
2022/09/11 10:25:14;;;;;;;1.88;0.70;;;24.50;39.90;;;;;;6262487;28;19943;-71
2022/09/11 10:28:20;;;;;;;2.97;0.60;;;24.60;39.50;;;;;;6268772;28;20064;-71
2022/09/11 10:31:21;;;;;;;1.42;0.50;;;24.70;39.30;;;;;;6252261;28;20095;-69
2022/09/11 10:34:25;;;;;;;1.58;0.60;;;24.80;39.20;;;;;;6248651;28;20418;-69
2022/09/11 10:37:28;;;;;;;2.17;0.65;;;25.00;38.90;;;;;;6249019;28;20045;-72
2022/09/11 10:40:30;;;;;;;1.17;0.70;;;25.30;38.50;;;;;;6248868;28;20049;-71
2022/09/11 10:43:49;;;;;;;3.50;0.80;;;25.60;37.90;;;;;;6254009;28;20124;-71
2022/09/11 10:47:23;;;;;;;6.72;0.80;;;25.80;37.50;;;;;;6278918;28;20052;-71
2022/09/11 10:50:25;;;;;;;3.30;0.73;;;26.20;37.20;;;;;;6249674;28;20049;-78
2022/09/11 10:53:28;;;;;;;2.90;0.80;;;26.50;36.70;;;;;;6233652;28;20102;-77
2022/09/11 10:56:31;;;;;;;1.77;0.63;;;26.70;36.30;;;;;;6265544;28;20039;-76
2022/09/11 11:00:04;;;;;;;0.70;0.43;;;27.00;35.70;;;;;;6291839;28;20044;-76
2022/09/11 11:03:15;;;;;;;2.67;0.60;;;27.30;35.10;;;;;;6279862;28;20032;-76
2022/09/11 11:06:36;;;;;;;1.77;0.70;;;27.60;34.60;;;;;;6272481;28;20037;-76
2022/09/11 11:10:15;;;;;;;1.08;0.40;;;27.80;34.20;;;;;;6258380;28;20033;-77
2022/09/11 11:13:34;;;;;;;1.70;0.83;;;28.00;33.80;;;;;;6261668;28;20093;-77
2022/09/11 11:16:50;;;;;;;0.52;0.40;;;28.10;33.60;;;;;;6251474;28;20450;-76
2022/09/11 11:19:57;;;;;;;1.55;0.60;;;28.30;33.60;;;;;;6267725;28;20758;-77
2022/09/11 11:23:17;;;;;;;0.67;0.50;;;28.40;33.30;;;;;;6243329;28;20104;-76
2022/09/11 11:26:26;;;;;;;2.10;0.50;;;28.40;32.80;;;;;;6267629;28;20044;-78
2022/09/11 11:29:42;;;;;;;5.28;1.13;;;28.50;32.80;;;;;;6267625;28;20095;-76
2022/09/11 11:33:06;;;;;;;2.33;0.77;;;28.50;32.70;;;;;;6258360;28;20111;-77
2022/09/11 11:36:38;;;;;;;3.75;0.70;;;28.50;32.70;;;;;;6242642;28;20041;-77
2022/09/11 11:40:00;;;;;;;0.80;0.50;;;28.70;32.30;;;;;;6264325;28;20029;-76
2022/09/11 11:43:11;;;;;;;2.88;0.43;;;29.00;31.90;;;;;;6257955;28;20033;-76
2022/09/11 11:46:18;;;;;;;1.08;0.50;;;29.20;31.70;;;;;;6275841;28;20343;-78
2022/09/11 11:49:37;;;;;;;1.25;0.50;;;29.50;31.30;;;;;;6268102;28;20033;-75
2022/09/11 11:52:49;;;;;;;2.47;0.60;;;29.70;31.10;;;;;;6275323;28;20043;-75
2022/09/11 11:55:59;;;;;;;3.38;0.70;;;29.90;30.90;;;;;;6270862;28;20381;-77
2022/09/11 11:59:14;;;;;;;2.67;0.45;;;30.10;30.60;;;;;;6294592;28;20119;-78
2022/09/11 12:02:23;;;;;;;2.88;0.70;;;30.30;30.30;;;;;;6271741;28;20366;-73
2022/09/11 12:05:27;;;;;;;0.75;0.50;;;30.50;30.00;;;;;;6267726;28;20052;-73
2022/09/11 12:08:28;;;;;;;0.85;0.68;;;30.70;29.80;;;;;;6260882;28;20049;-75
2022/09/11 12:11:31;;;;;;;1.67;0.60;;;31.00;29.70;;;;;;6254096;28;20091;-75
2022/09/11 12:14:33;;;;;;;3.05;0.68;;;31.40;29.40;;;;;;6265777;28;20045;-77
2022/09/11 12:17:37;;;;;;;2.30;0.70;;;31.90;28.70;;;;;;6250928;28;20044;-75
2022/09/11 12:20:45;;;;;;;0.88;0.47;;;32.40;28.10;;;;;;6248144;28;20080;-78
2022/09/11 12:23:48;;;;;;;1.85;0.50;;;32.90;27.40;;;;;;6275430;28;20036;-75
2022/09/11 12:27:27;;;;;;;1.30;0.45;;;33.40;26.70;;;;;;6271111;28;20125;-77
2022/09/11 12:30:29;;;;;;;5.05;0.52;;;33.80;26.40;;;;;;6270948;28;20361;-78
2022/09/11 12:33:43;;;;;;;1.27;0.38;;;34.50;25.70;;;;;;6282950;28;20063;-77
2022/09/11 12:37:18;;;;;;;2.33;0.40;;;35.20;24.70;;;;;;6283455;28;20044;-77
2022/09/11 12:40:31;;;;;;;0.80;0.43;;;35.90;24.20;;;;;;6246100;28;20063;-77
2022/09/11 12:43:34;;;;;;;3.17;0.57;;;36.50;23.70;;;;;;6274120;28;20124;-78
2022/09/11 12:46:47;;;;;;;2.58;0.40;;;37.10;23.10;;;;;;6268619;28;20036;-77
2022/09/11 12:50:04;;;;;;;0.50;0.50;;;37.80;22.70;;;;;;6280299;28;20063;-76
2022/09/11 12:53:15;;;;;;;0.93;0.65;;;38.40;22.00;;;;;;6264291;28;20041;-76
2022/09/11 12:56:22;;;;;;;2.90;0.50;;;38.80;21.80;;;;;;6276949;28;20029;-78
2022/09/11 12:59:29;;;;;;;1.27;0.40;;;39.30;21.50;;;;;;6254022;28;20034;-77
2022/09/11 13:02:41;;;;;;;0.40;0.40;;;39.80;21.30;;;;;;6268434;28;20057;-77
2022/09/11 13:05:44;;;;;;;1.85;0.63;;;40.20;20.90;;;;;;6272000;28;20037;-77
2022/09/11 13:08:58;;;;;;;1.10;0.55;;;40.30;20.70;;;;;;6253731;28;20244;-79
2022/09/11 13:12:23;;;;;;;0.65;0.32;;;40.40;20.50;;;;;;6278090;28;20029;-79
2022/09/11 13:15:56;;;;;;;0.80;0.40;;;40.20;20.40;;;;;;6244976;28;20040;-79
2022/09/11 13:19:16;;;;;;;2.47;0.47;;;40.30;20.40;;;;;;6276592;28;20041;-80
2022/09/11 13:22:26;;;;;;;0.85;0.38;;;40.60;20.20;;;;;;6267114;28;20029;-79
2022/09/11 13:25:31;;;;;;;1.20;0.50;;;40.90;19.70;;;;;;6262609;28;20098;-79
2022/09/11 13:28:43;;;;;;;2.05;0.50;;;40.80;19.70;;;;;;6291268;28;20350;-80
2022/09/11 13:31:44;;;;;;;1.23;0.60;;;41.00;19.70;;;;;;6289590;28;20036;-80
2022/09/11 13:34:57;;;;;;;5.70;0.63;;;41.20;19.40;;;;;;6290553;28;20047;-81
2022/09/11 13:38:17;;;;;;;1.05;0.50;;;41.40;19.40;;;;;;6271643;28;20056;-79
2022/09/11 13:41:22;;;;;;;0.57;0.57;;;41.30;19.40;;;;;;6277540;28;20036;-79
2022/09/11 13:44:46;;;;;;;4.93;0.60;;;40.60;19.70;;;;;;6262400;28;20062;-79
2022/09/11 13:47:47;;;;;;;3.35;0.57;;;39.40;20.50;;;;;;6292754;28;20048;-80
2022/09/11 13:50:49;;;;;;;1.50;0.50;;;37.80;21.50;;;;;;6264193;28;20127;-79
2022/09/11 13:54:17;;;;;;;0.75;0.40;;;36.50;22.60;;;;;;6268710;28;20033;-79
2022/09/11 13:57:21;;;;;;;0.40;0.40;;;35.20;23.50;;;;;;6274409;28;20051;-80
2022/09/11 14:00:43;;;;;;;1.63;0.40;;;34.30;24.10;;;;;;6290398;28;20431;-81
2022/09/11 14:03:47;;;;;;;0.80;0.50;;;33.40;24.90;;;;;;6286693;28;20469;-81
2022/09/11 14:06:48;;;;;;;0.82;0.57;;;32.70;25.60;;;;;;6273087;28;20362;-80
2022/09/11 14:10:13;;;;;;;3.60;1.13;;;32.10;26.40;;;;;;6262027;28;20040;-80
2022/09/11 14:13:17;;;;;;;0.77;0.57;;;31.50;26.90;;;;;;6267002;28;20059;-80
2022/09/11 14:16:26;;;;;;;1.35;0.52;;;31.00;27.50;;;;;;6246236;28;20040;-80
2022/09/11 14:19:31;;;;;;;1.55;0.35;;;30.60;28.20;;;;;;6294978;28;20030;-82
2022/09/11 14:22:32;;;;;;;1.25;0.50;;;30.30;28.70;;;;;;6300907;28;20158;-80
2022/09/11 14:25:32;;;;;;;1.85;0.55;;;30.10;29.10;;;;;;6310429;28;20048;-82
2022/09/11 14:29:02;;;;;;;1.15;0.40;;;29.90;29.40;;;;;;6289708;28;20032;-82
2022/09/11 14:32:28;;;;;;;0.65;0.52;;;29.70;29.80;;;;;;6276137;28;20086;-81
2022/09/11 14:35:30;;;;;;;1.00;0.60;;;29.60;30.20;;;;;;6267559;28;20032;-80
2022/09/11 14:38:33;;;;;;;0.73;0.52;;;29.60;30.30;;;;;;6283944;28;20535;-80
2022/09/11 14:41:33;;;;;;;2.15;0.60;;;29.50;30.60;;;;;;6276995;28;20382;-82
2022/09/11 14:44:38;;;;;;;1.38;0.90;;;29.40;30.80;;;;;;6269932;28;20048;-81
2022/09/11 14:47:39;;;;;;;0.57;0.45;;;29.30;31.00;;;;;;6276854;28;20036;-80
2022/09/11 14:50:40;;;;;;;2.47;0.40;;;29.20;31.30;;;;;;6281309;28;20040;-79
2022/09/11 14:53:41;;;;;;;1.80;0.60;;;29.10;31.50;;;;;;6271836;28;20052;-81
2022/09/11 14:56:43;;;;;;;0.98;0.60;;;29.10;31.80;;;;;;6287658;28;20449;-78
2022/09/11 14:59:44;;;;;;;1.20;0.68;;;29.10;31.90;;;;;;6273493;28;20120;-76
2022/09/11 15:02:46;;;;;;;1.08;0.60;;;28.90;32.20;;;;;;6253541;28;20049;-77
2022/09/11 15:05:52;;;;;;;1.55;0.60;;;28.90;32.40;;;;;;6275484;28;20032;-77
2022/09/11 15:08:53;;;;;;;1.92;0.60;;;28.80;32.50;;;;;;6259411;28;20133;-79
2022/09/11 15:11:54;;;;;;;0.70;0.40;;;28.90;32.90;;;;;;6279939;28;20117;-81
2022/09/11 15:14:56;;;;;;;1.08;0.60;;;28.90;33.20;;;;;;6290304;28;20041;-80
2022/09/11 15:17:56;;;;;;;7.10;0.55;;;28.90;33.20;;;;;;6291670;28;20047;-81
2022/09/11 15:20:57;;;;;;;0.55;0.50;;;28.90;33.20;;;;;;6292529;28;20398;-86
2022/09/11 15:23:58;;;;;;;1.42;0.57;;;28.90;33.30;;;;;;6294076;28;20040;-83
2022/09/11 15:26:59;;;;;;;2.63;0.70;;;28.80;33.40;;;;;;6276584;28;20847;-80
2022/09/11 15:30:01;;;;;;;2.40;0.50;;;28.90;33.60;;;;;;6277939;28;20462;-77
2022/09/11 15:33:03;;;;;;;0.77;0.60;;;28.90;33.60;;;;;;6292961;28;20490;-79
2022/09/11 15:36:04;;;;;;;0.77;0.47;;;28.90;33.80;;;;;;6298329;28;20966;-81
2022/09/11 15:39:06;;;;;;;1.00;0.70;;;28.90;33.90;;;;;;6291757;28;20450;-80
2022/09/11 15:42:08;;;;;;;1.58;0.40;;;28.90;33.90;;;;;;6293081;28;20028;-79
2022/09/11 15:45:11;;;;;;;2.05;0.68;;;28.90;33.90;;;;;;6274326;28;20150;-79
2022/09/11 15:48:13;;;;;;;1.05;0.65;;;28.90;33.80;;;;;;6263638;28;20033;-80
2022/09/11 15:51:19;;;;;;;0.75;0.50;;;29.00;33.90;;;;;;6294867;28;20515;-80
2022/09/11 15:54:24;;;;;;;2.63;0.70;;;29.00;33.90;;;;;;6290399;28;20025;-79
2022/09/11 15:57:24;;;;;;;0.40;0.40;;;29.00;33.90;;;;;;6293629;28;20161;-80
2022/09/11 16:00:25;;;;;;;1.83;0.68;;;29.00;33.80;;;;;;6276455;28;20052;-79
2022/09/11 16:03:27;;;;;;;2.00;0.60;;;29.10;33.80;;;;;;6294775;28;20055;-78
2022/09/11 16:06:31;;;;;;;2.88;0.73;;;29.20;33.70;;;;;;6291303;28;20029;-83
2022/09/11 16:09:32;;;;;;;0.30;0.30;;;29.20;33.50;;;;;;6289990;28;20044;-81
2022/09/11 16:12:33;;;;;;;1.65;0.60;;;29.40;33.40;;;;;;6270335;28;20040;-81
2022/09/11 16:15:35;;;;;;;0.40;0.40;;;30.10;32.60;;;;;;6286453;28;20041;-81